Time;durP1;ratioP1;P1;durP2;ratioP2;P2;SDS_P1;SDS_P2;PMS_P1;PMS_P2;Temp;Humidity;BMP_temperature;BMP_pressure;BME280_temperature;BME280_humidity;BME280_pressure;Samples;Min_cycle;Max_cycle;Signal;HPM_P1;HPM_P2
2023/01/13 00:01:19;;;;;;;39.10;36.50;;;;;;;;;;5020398;28;20026;-58
2023/01/13 00:03:45;;;;;;;38.50;35.90;;;;;;;;;;5012463;28;20088;-61
2023/01/13 00:06:15;;;;;;;38.20;35.60;;;;;;;;;;5014034;28;20014;-55
2023/01/13 00:08:42;;;;;;;39.55;36.95;;;;;;;;;;5013312;28;20481;-62
2023/01/13 00:11:09;;;;;;;38.40;35.80;;;;;;;;;;5013489;28;20029;-56
2023/01/13 00:13:37;;;;;;;37.75;35.25;;;;;;;;;;5012630;28;20512;-60
2023/01/13 00:16:04;;;;;;;35.57;33.17;;;;;;;;;;5027992;28;20033;-56
2023/01/13 00:18:30;;;;;;;34.75;32.35;;;;;;;;;;5031204;28;20033;-61
2023/01/13 00:21:00;;;;;;;33.60;31.20;;;;;;;;;;5033026;28;20367;-59
2023/01/13 00:23:27;;;;;;;33.80;31.50;;;;;;;;;;5034002;28;20021;-59
2023/01/13 00:25:55;;;;;;;33.72;31.33;;;;;;;;;;5034381;28;20040;-56
2023/01/13 00:28:21;;;;;;;32.03;29.73;;;;;;;;;;5034430;28;20389;-60
2023/01/13 00:30:47;;;;;;;30.63;28.42;;;;;;;;;;5033124;28;20022;-61
2023/01/13 00:33:13;;;;;;;30.70;28.50;;;;;;;;;;5033975;28;20061;-61
2023/01/13 00:35:39;;;;;;;28.95;26.75;;;;;;;;;;5034148;28;20029;-57
2023/01/13 00:38:04;;;;;;;27.70;25.60;;;;;;;;;;5032912;28;20036;-61
2023/01/13 00:40:30;;;;;;;27.45;25.35;;;;;;;;;;5034074;28;20017;-58
2023/01/13 00:45:41;;;;;;;24.02;22.02;;;;;;;;;;5034933;28;20116;-58
2023/01/13 00:48:07;;;;;;;24.25;22.25;;;;;;;;;;5033053;28;20025;-60
2023/01/13 00:50:33;;;;;;;21.73;19.83;;;;;;;;;;5033893;28;20457;-59
2023/01/13 00:53:00;;;;;;;19.10;17.30;;;;;;;;;;5034214;28;20035;-58
2023/01/13 00:55:26;;;;;;;19.23;17.42;;;;;;;;;;5032791;28;20486;-61
2023/01/13 00:57:52;;;;;;;18.45;16.65;;;;;;;;;;5032787;28;20034;-58
2023/01/13 01:00:18;;;;;;;18.63;16.83;;;;;;;;;;5033929;28;20037;-58
2023/01/13 01:02:44;;;;;;;18.20;16.40;;;;;;;;;;5034130;28;20021;-60
2023/01/13 01:05:10;;;;;;;17.85;16.15;;;;;;;;;;5033528;28;20543;-50
2023/01/13 01:07:36;;;;;;;17.92;16.17;;;;;;;;;;5033702;28;20025;-60
2023/01/13 01:10:02;;;;;;;21.15;16.92;;;;;;;;;;5033245;28;20477;-60
2023/01/13 01:12:28;;;;;;;15.90;14.20;;;;;;;;;;5033346;28;20108;-58
2023/01/13 01:14:54;;;;;;;15.30;13.60;;;;;;;;;;5033250;28;20494;-56
2023/01/13 01:17:20;;;;;;;15.20;13.20;;;;;;;;;;5033348;28;20026;-58
2023/01/13 01:19:46;;;;;;;14.80;12.20;;;;;;;;;;5031964;28;20047;-60
2023/01/13 01:22:12;;;;;;;17.30;13.75;;;;;;;;;;5033193;28;20112;-60
2023/01/13 01:24:38;;;;;;;14.88;12.35;;;;;;;;;;5031624;28;20030;-61
2023/01/13 01:27:05;;;;;;;14.90;12.40;;;;;;;;;;5033117;28;20022;-60
2023/01/13 01:29:31;;;;;;;14.88;12.55;;;;;;;;;;5033058;28;20076;-58
2023/01/13 01:31:57;;;;;;;14.70;11.80;;;;;;;;;;5032888;28;20080;-60
2023/01/13 01:34:24;;;;;;;14.68;11.88;;;;;;;;;;5032649;28;20049;-58
2023/01/13 01:36:50;;;;;;;14.50;11.50;;;;;;;;;;5032757;28;20028;-58
2023/01/13 01:39:16;;;;;;;14.60;11.65;;;;;;;;;;5031850;28;20108;-57
2023/01/13 01:43:57;;;;;;;14.80;12.00;;;;;;;;;;5032918;28;20065;-56
2023/01/13 01:44:43;;;;;;;14.43;11.07;;;;;;;;;;5032397;28;20104;-57
2023/01/13 01:47:10;;;;;;;15.00;12.63;;;;;;;;;;5032805;28;20425;-57
2023/01/13 01:49:38;;;;;;;14.50;11.20;;;;;;;;;;5032613;28;20418;-59
2023/01/13 01:52:04;;;;;;;14.68;11.85;;;;;;;;;;5032704;28;20477;-58
2023/01/13 01:54:50;;;;;;;14.63;11.73;;;;;;;;;;5032285;28;20067;-60
2023/01/13 01:57:23;;;;;;;14.60;11.55;;;;;;;;;;5032259;28;20026;-57
2023/01/13 01:59:49;;;;;;;22.48;13.32;;;;;;;;;;5032420;28;20040;-58
2023/01/13 02:02:15;;;;;;;14.30;10.73;;;;;;;;;;5032389;28;20167;-58
2023/01/13 02:04:49;;;;;;;14.40;11.00;;;;;;;;;;5030871;28;20108;-54
2023/01/13 02:07:16;;;;;;;14.30;10.88;;;;;;;;;;5032444;28;20032;-58
2023/01/13 02:09:42;;;;;;;14.50;11.30;;;;;;;;;;5030829;28;20037;-60
2023/01/13 02:14:54;;;;;;;14.35;10.90;;;;;;;;;;5032297;28;20044;-58
2023/01/13 02:17:20;;;;;;;14.85;11.73;;;;;;;;;;5030902;28;20022;-59
2023/01/13 02:19:46;;;;;;;14.18;10.38;;;;;;;;;;5030963;28;20022;-55
2023/01/13 02:22:15;;;;;;;14.23;10.55;;;;;;;;;;5031578;28;20104;-59
2023/01/13 02:24:53;;;;;;;14.15;10.27;;;;;;;;;;5031734;28;20152;-58
2023/01/13 02:27:38;;;;;;;14.15;10.15;;;;;;;;;;5032217;28;20031;-59
2023/01/13 02:33:07;;;;;;;14.13;10.23;;;;;;;;;;5032004;28;20036;-58
2023/01/13 02:35:33;;;;;;;14.10;10.10;;;;;;;;;;5032158;28;20052;-60
2023/01/13 02:38:00;;;;;;;14.00;10.00;;;;;;;;;;5032153;28;20499;-58
2023/01/13 02:40:55;;;;;;;20.58;13.13;;;;;;;;;;5030838;28;20032;-59
2023/01/13 02:46:17;;;;;;;14.02;10.13;;;;;;;;;;5031869;28;20048;-60
2023/01/13 02:48:45;;;;;;;14.07;10.10;;;;;;;;;;5031524;28;20028;-60
2023/01/13 02:51:16;;;;;;;13.93;9.63;;;;;;;;;;5031669;28;20013;-58
2023/01/13 02:54:11;;;;;;;14.15;10.23;;;;;;;;;;5031411;28;20025;-62
2023/01/13 02:56:39;;;;;;;13.75;9.15;;;;;;;;;;5018957;28;20048;-61
2023/01/13 02:59:06;;;;;;;13.85;9.43;;;;;;;;;;5031838;28;20497;-61
2023/01/13 03:01:32;;;;;;;14.00;9.95;;;;;;;;;;5031736;28;20034;-62
2023/01/13 03:03:58;;;;;;;13.65;9.05;;;;;;;;;;5030163;28;20025;-63
2023/01/13 03:06:30;;;;;;;14.25;10.13;;;;;;;;;;5031538;28;20087;-61
2023/01/13 03:09:17;;;;;;;13.85;9.43;;;;;;;;;;5030095;28;20117;-63
2023/01/13 03:11:53;;;;;;;16.85;11.80;;;;;;;;;;5031418;28;20558;-61
2023/01/13 03:14:22;;;;;;;13.88;9.55;;;;;;;;;;5029996;28;20021;-58
2023/01/13 03:17:11;;;;;;;13.90;9.80;;;;;;;;;;5031229;28;20028;-60
2023/01/13 03:19:41;;;;;;;13.90;9.60;;;;;;;;;;5023583;28;20034;-60
2023/01/13 03:22:07;;;;;;;13.70;9.00;;;;;;;;;;5031502;28;20036;-59
2023/01/13 03:24:38;;;;;;;13.95;9.70;;;;;;;;;;5031271;28;20026;-61
2023/01/13 03:27:11;;;;;;;13.90;9.73;;;;;;;;;;5031452;28;20500;-60
2023/01/13 03:29:44;;;;;;;14.20;10.15;;;;;;;;;;5031382;28;20065;-61
2023/01/13 03:32:17;;;;;;;13.95;9.70;;;;;;;;;;5031259;28;20025;-60
2023/01/13 03:35:09;;;;;;;13.88;9.48;;;;;;;;;;5034687;28;20500;-63
2023/01/13 03:37:37;;;;;;;13.95;9.70;;;;;;;;;;5011727;28;20072;-61
2023/01/13 03:40:08;;;;;;;13.77;9.18;;;;;;;;;;5033772;28;20029;-62
2023/01/13 03:42:35;;;;;;;13.70;9.02;;;;;;;;;;5035167;28;20029;-60
2023/01/13 03:45:01;;;;;;;13.70;9.05;;;;;;;;;;5033623;28;20021;-60
2023/01/13 03:47:33;;;;;;;22.85;11.00;;;;;;;;;;5035000;28;20366;-61
2023/01/13 03:50:04;;;;;;;13.95;9.20;;;;;;;;;;5033653;28;20080;-61
2023/01/13 03:52:51;;;;;;;13.68;9.00;;;;;;;;;;5034720;28;20478;-61
2023/01/13 03:55:18;;;;;;;13.68;9.05;;;;;;;;;;5034541;28;20389;-60
2023/01/13 03:58:00;;;;;;;13.60;8.70;;;;;;;;;;5034633;28;20032;-61
2023/01/13 04:00:31;;;;;;;13.63;8.80;;;;;;;;;;5034539;28;20026;-61
2023/01/13 04:03:03;;;;;;;13.88;9.50;;;;;;;;;;5034555;28;20075;-60
2023/01/13 04:05:29;;;;;;;13.70;9.00;;;;;;;;;;5034782;28;20033;-62
2023/01/13 04:08:07;;;;;;;13.80;9.40;;;;;;;;;;5034659;28;20052;-60
2023/01/13 04:10:42;;;;;;;13.80;9.27;;;;;;;;;;5034435;28;20052;-61
2023/01/13 04:13:11;;;;;;;14.32;10.43;;;;;;;;;;5034216;28;20136;-62
2023/01/13 04:15:39;;;;;;;13.60;8.80;;;;;;;;;;5034335;28;20025;-62
2023/01/13 04:18:10;;;;;;;13.80;9.20;;;;;;;;;;5034274;28;20041;-62
2023/01/13 04:20:36;;;;;;;13.80;8.80;;;;;;;;;;5034187;28;20042;-59
2023/01/13 04:23:02;;;;;;;13.70;8.70;;;;;;;;;;5033831;28;20071;-57
2023/01/13 04:25:28;;;;;;;13.60;8.73;;;;;;;;;;5033988;28;20071;-62
2023/01/13 04:27:54;;;;;;;13.68;9.00;;;;;;;;;;5034007;28;20104;-59
2023/01/13 04:30:20;;;;;;;13.65;8.77;;;;;;;;;;5032683;28;20022;-59
2023/01/13 04:32:46;;;;;;;13.57;8.77;;;;;;;;;;5033794;28;20393;-61
2023/01/13 04:35:12;;;;;;;13.55;8.52;;;;;;;;;;5034311;28;20026;-57
2023/01/13 04:37:38;;;;;;;13.50;8.60;;;;;;;;;;5032808;28;20022;-60
2023/01/13 04:40:04;;;;;;;13.50;8.43;;;;;;;;;;5034270;28;20029;-61
2023/01/13 04:42:30;;;;;;;13.55;8.57;;;;;;;;;;5034035;28;20017;-61
2023/01/13 04:44:56;;;;;;;13.57;8.68;;;;;;;;;;5031569;28;20025;-60
2023/01/13 04:47:22;;;;;;;13.70;9.02;;;;;;;;;;5033807;28;20571;-61
2023/01/13 04:49:48;;;;;;;13.52;8.48;;;;;;;;;;5033655;28;20021;-63
2023/01/13 04:52:14;;;;;;;13.57;8.68;;;;;;;;;;5032532;28;20490;-61
2023/01/13 04:54:40;;;;;;;13.90;9.43;;;;;;;;;;5033675;28;20041;-60
2023/01/13 04:57:06;;;;;;;13.50;8.30;;;;;;;;;;5032476;28;20032;-62
2023/01/13 04:59:32;;;;;;;13.40;8.15;;;;;;;;;;5032564;28;20485;-60
2023/01/13 05:01:58;;;;;;;13.80;8.80;;;;;;;;;;5032829;28;20021;-60
2023/01/13 05:04:24;;;;;;;13.25;8.18;;;;;;;;;;5033513;28;20029;-57
2023/01/13 05:06:50;;;;;;;13.50;8.50;;;;;;;;;;5033617;28;20525;-58
2023/01/13 05:09:16;;;;;;;14.20;9.35;;;;;;;;;;5033183;28;20088;-60
2023/01/13 05:17:14;;;;;;;13.90;8.98;;;;;;;;;;5033274;28;20095;-63
2023/01/13 05:19:40;;;;;;;13.30;8.10;;;;;;;;;;5033421;28;20036;-58
2023/01/13 05:27:35;;;;;;;13.27;7.85;;;;;;;;;;5033705;28;20448;-59
2023/01/13 05:30:01;;;;;;;13.40;8.18;;;;;;;;;;5034236;28;20029;-60
2023/01/13 05:32:27;;;;;;;13.38;8.18;;;;;;;;;;5036230;28;20033;-61
2023/01/13 05:34:54;;;;;;;13.40;8.10;;;;;;;;;;5036837;28;20021;-55
2023/01/13 05:37:21;;;;;;;13.30;7.95;;;;;;;;;;5032980;28;20129;-62
2023/01/13 05:45:16;;;;;;;13.73;8.45;;;;;;;;;;5032866;28;20044;-60
2023/01/13 05:47:42;;;;;;;13.30;8.02;;;;;;;;;;5032732;28;20079;-60
2023/01/13 05:50:09;;;;;;;13.35;8.05;;;;;;;;;;5032992;28;20021;-59
2023/01/13 05:52:35;;;;;;;13.45;8.13;;;;;;;;;;5032679;28;20041;-56
2023/01/13 05:55:01;;;;;;;13.40;8.02;;;;;;;;;;5032324;28;20033;-61
2023/01/13 05:57:27;;;;;;;13.45;8.15;;;;;;;;;;5031219;28;20108;-61
2023/01/13 05:59:53;;;;;;;13.45;8.32;;;;;;;;;;5030758;28;20033;-61
2023/01/13 06:02:19;;;;;;;13.40;8.30;;;;;;;;;;5031930;28;20028;-62
2023/01/13 06:04:45;;;;;;;13.60;8.70;;;;;;;;;;5030675;28;20044;-62
2023/01/13 06:07:11;;;;;;;13.52;8.50;;;;;;;;;;5032084;28;20552;-62
2023/01/13 06:09:37;;;;;;;13.55;8.50;;;;;;;;;;5055875;22;20038;-57
2023/01/13 06:12:03;;;;;;;13.55;8.50;;;;;;;;;;5047350;28;20048;-58
2023/01/13 06:14:38;;;;;;;13.50;8.52;;;;;;;;;;5046583;28;20529;-59
2023/01/13 06:17:06;;;;;;;13.57;8.57;;;;;;;;;;5047078;28;20053;-60
2023/01/13 06:19:32;;;;;;;13.55;8.63;;;;;;;;;;5046908;28;20025;-61
2023/01/13 06:21:58;;;;;;;13.35;8.23;;;;;;;;;;5031941;28;20493;-59
2023/01/13 06:24:24;;;;;;;13.40;8.48;;;;;;;;;;5031432;28;20052;-59
2023/01/13 06:26:50;;;;;;;13.48;8.40;;;;;;;;;;5031716;28;20026;-61
2023/01/13 06:29:16;;;;;;;13.57;8.82;;;;;;;;;;5031433;28;20493;-59
2023/01/13 06:31:42;;;;;;;13.57;8.73;;;;;;;;;;5031416;28;20038;-58
2023/01/13 06:34:12;;;;;;;13.70;9.00;;;;;;;;;;5031688;28;20049;-59
2023/01/13 06:36:41;;;;;;;13.63;8.73;;;;;;;;;;5031145;28;20080;-60
2023/01/13 06:39:07;;;;;;;;;;;;;;;;;;5048652;28;20037;-59
2023/01/13 06:44:19;;;;;;;19.83;11.13;;;;;;;;;;5032492;28;20032;-59
2023/01/13 06:46:45;;;;;;;20.88;10.65;;;;;;;;;;5031376;28;20401;-61
2023/01/13 06:49:11;;;;;;;20.55;10.40;;;;;;;;;;5031595;28;20029;-60
2023/01/13 06:51:37;;;;;;;18.33;10.52;;;;;;;;;;5031100;28;20036;-58
2023/01/13 06:54:03;;;;;;;20.08;10.60;;;;;;;;;;5031007;28;20403;-56
2023/01/13 06:56:29;;;;;;;22.33;11.52;;;;;;;;;;5031128;28;20033;-60
2023/01/13 06:58:55;;;;;;;20.00;11.52;;;;;;;;;;5043365;28;20128;-62
2023/01/13 07:01:21;;;;;;;18.30;9.95;;;;;;;;;;5021651;28;20049;-60
2023/01/13 07:03:47;;;;;;;20.17;9.48;;;;;;;;;;5023918;28;20458;-59
2023/01/13 07:06:13;;;;;;;22.17;10.30;;;;;;;;;;5011622;28;20102;-57
2023/01/13 07:08:39;;;;;;;24.83;9.82;;;;;;;;;;5025646;28;20021;-59
2023/01/13 07:11:05;;;;;;;19.05;10.93;;;;;;;;;;5033698;28;20034;-59
2023/01/13 07:16:18;;;;;;;21.40;10.75;;;;;;;;;;5030595;28;20367;-60
2023/01/13 07:18:44;;;;;;;23.65;10.45;;;;;;;;;;5015344;28;20021;-61
2023/01/13 07:21:12;;;;;;;18.35;10.65;;;;;;;;;;5015017;28;20022;-60
2023/01/13 07:23:41;;;;;;;20.85;10.65;;;;;;;;;;5014771;28;20022;-57
2023/01/13 07:26:08;;;;;;;20.50;10.98;;;;;;;;;;5015194;28;20033;-60
2023/01/13 07:28:34;;;;;;;21.98;11.65;;;;;;;;;;5015560;28;20025;-58
2023/01/13 07:31:00;;;;;;;18.58;10.13;;;;;;;;;;5013760;28;20041;-58
2023/01/13 07:33:27;;;;;;;21.23;11.15;;;;;;;;;;5019867;28;20305;-59
2023/01/13 07:35:57;;;;;;;22.67;10.57;;;;;;;;;;5034762;28;20478;-60
2023/01/13 07:38:23;;;;;;;17.75;10.25;;;;;;;;;;5034703;28;20061;-61
2023/01/13 07:40:49;;;;;;;21.63;10.52;;;;;;;;;;5033372;28;20026;-59
2023/01/13 07:46:13;;;;;;;21.95;11.32;;;;;;;;;;5011197;28;20049;-60
2023/01/13 07:48:39;;;;;;;20.52;10.40;;;;;;;;;;5033254;28;20691;-61
2023/01/13 07:51:06;;;;;;;19.13;9.65;;;;;;;;;;5034489;28;20411;-60
2023/01/13 07:53:32;;;;;;;22.38;9.98;;;;;;;;;;5033122;28;20021;-56
2023/01/13 07:55:59;;;;;;;19.52;9.50;;;;;;;;;;5034319;28;20037;-61
2023/01/13 07:58:25;;;;;;;22.63;9.77;;;;;;;;;;5034252;28;20021;-63
2023/01/13 08:00:52;;;;;;;19.92;9.48;;;;;;;;;;5034033;28;20551;-63
2023/01/13 08:03:18;;;;;;;19.02;9.88;;;;;;;;;;5033966;28;20033;-64
2023/01/13 08:05:45;;;;;;;20.45;9.80;;;;;;;;;;5034462;28;20071;-60
2023/01/13 08:08:11;;;;;;;24.50;9.57;;;;;;;;;;5034315;28;20028;-61
2023/01/13 08:10:37;;;;;;;19.90;9.75;;;;;;;;;;5033940;28;20481;-58
2023/01/13 08:13:16;;;;;;;20.52;11.55;;;;;;;;;;5033912;28;20030;-59
2023/01/13 08:15:43;;;;;;;18.08;10.57;;;;;;;;;;5034471;28;20036;-60
2023/01/13 08:18:09;;;;;;;22.98;10.32;;;;;;;;;;5036277;28;20025;-63
2023/01/13 08:20:35;;;;;;;18.25;10.35;;;;;;;;;;5032126;28;20022;-60
2023/01/13 08:23:01;;;;;;;21.35;11.18;;;;;;;;;;5033968;28;20093;-61
2023/01/13 08:25:28;;;;;;;16.85;9.13;;;;;;;;;;5035461;28;20393;-61
2023/01/13 08:27:54;;;;;;;21.75;11.98;;;;;;;;;;5033818;28;20036;-59
2023/01/13 08:30:20;;;;;;;26.58;10.70;;;;;;;;;;5035242;28;20135;-55
2023/01/13 08:32:48;;;;;;;19.90;9.75;;;;;;;;;;5034876;28;20548;-59
2023/01/13 08:35:14;;;;;;;19.67;10.20;;;;;;;;;;5037395;28;20461;-57
2023/01/13 08:37:40;;;;;;;20.05;9.77;;;;;;;;;;5037513;28;20098;-57
2023/01/13 08:40:07;;;;;;;18.00;10.57;;;;;;;;;;5037568;28;20033;-56
2023/01/13 08:42:33;;;;;;;17.98;9.75;;;;;;;;;;5034149;28;20557;-60
2023/01/13 08:45:00;;;;;;;21.77;10.18;;;;;;;;;;5033094;28;20029;-59
2023/01/13 08:47:28;;;;;;;17.50;9.77;;;;;;;;;;5027231;28;20038;-58
2023/01/13 08:49:55;;;;;;;19.42;9.98;;;;;;;;;;5033918;28;20029;-60
2023/01/13 08:52:21;;;;;;;19.77;10.23;;;;;;;;;;5033680;28;20056;-63
2023/01/13 08:54:47;;;;;;;19.30;9.80;;;;;;;;;;5029649;28;20026;-60
2023/01/13 08:57:18;;;;;;;20.67;9.48;;;;;;;;;;5025549;28;20405;-62
2023/01/13 08:59:45;;;;;;;24.02;10.55;;;;;;;;;;5032980;28;20096;-61
2023/01/13 09:02:14;;;;;;;22.70;9.38;;;;;;;;;;5033071;28;20030;-63
2023/01/13 09:04:40;;;;;;;24.08;10.40;;;;;;;;;;5033123;28;20029;-62
2023/01/13 09:09:55;;;;;;;18.63;9.93;;;;;;;;;;5033478;28;20106;-64
2023/01/13 09:15:07;;;;;;;20.13;10.88;;;;;;;;;;5033251;28;20040;-63
2023/01/13 09:17:33;;;;;;;26.00;10.15;;;;;;;;;;5032734;28;20033;-58
2023/01/13 09:20:00;;;;;;;18.70;9.05;;;;;;;;;;5031301;28;20087;-63
2023/01/13 09:22:26;;;;;;;17.65;9.18;;;;;;;;;;5032771;28;20432;-64
2023/01/13 09:24:52;;;;;;;22.58;12.05;;;;;;;;;;5032008;28;20055;-64
2023/01/13 09:27:19;;;;;;;18.73;10.80;;;;;;;;;;5032579;28;20027;-62
2023/01/13 09:29:45;;;;;;;25.17;10.43;;;;;;;;;;5030753;28;20035;-64
2023/01/13 09:32:12;;;;;;;20.50;9.93;;;;;;;;;;5032480;28;20053;-62
2023/01/13 09:37:23;;;;;;;19.63;8.98;;;;;;;;;;5032554;28;20401;-64
2023/01/13 09:39:49;;;;;;;22.50;10.82;;;;;;;;;;5030970;28;20028;-63
2023/01/13 09:45:12;;;;;;;18.70;9.95;;;;;;;;;;5032245;28;20036;-63
2023/01/13 09:47:44;;;;;;;27.92;10.20;;;;;;;;;;5032342;28;20049;-64
2023/01/13 09:50:14;;;;;;;22.27;10.30;;;;;;;;;;5032170;28;20029;-64
2023/01/13 09:52:42;;;;;;;22.88;10.95;;;;;;;;;;5032102;28;20109;-62
2023/01/13 09:55:11;;;;;;;24.08;9.70;;;;;;;;;;5032003;28;20029;-64
2023/01/13 09:57:38;;;;;;;19.70;9.27;;;;;;;;;;5031990;28;20026;-64
2023/01/13 10:00:25;;;;;;;22.15;10.32;;;;;;;;;;5032014;28;20037;-65
2023/01/13 10:02:57;;;;;;;26.08;11.65;;;;;;;;;;5031826;28;20032;-64
2023/01/13 10:05:32;;;;;;;22.55;10.27;;;;;;;;;;5031458;28;20026;-67
2023/01/13 10:08:03;;;;;;;23.33;9.32;;;;;;;;;;5030474;28;20044;-61
2023/01/13 10:10:42;;;;;;;17.65;9.75;;;;;;;;;;5030445;28;20566;-62
2023/01/13 10:13:15;;;;;;;22.92;10.77;;;;;;;;;;5031460;28;20029;-63
2023/01/13 10:15:56;;;;;;;22.90;10.90;;;;;;;;;;5030151;28;20517;-61
2023/01/13 10:18:27;;;;;;;21.98;11.05;;;;;;;;;;5031584;28;20029;-63
2023/01/13 10:21:01;;;;;;;21.73;10.38;;;;;;;;;;5030959;28;20025;-62
2023/01/13 10:23:38;;;;;;;21.40;9.75;;;;;;;;;;5034389;28;20371;-64
2023/01/13 10:26:14;;;;;;;20.67;9.02;;;;;;;;;;5031989;28;20026;-62
2023/01/13 10:28:40;;;;;;;18.75;9.18;;;;;;;;;;5031719;28;20033;-62
2023/01/13 10:31:11;;;;;;;20.90;8.95;;;;;;;;;;5031252;28;20029;-63
2023/01/13 10:33:37;;;;;;;20.95;10.05;;;;;;;;;;5030371;28;20033;-63
2023/01/13 10:36:12;;;;;;;23.60;10.35;;;;;;;;;;5031832;28;20021;-62
2023/01/13 10:38:38;;;;;;;22.92;10.60;;;;;;;;;;5030952;28;20053;-61
2023/01/13 10:41:17;;;;;;;20.02;9.65;;;;;;;;;;5031979;28;20025;-64
2023/01/13 10:43:44;;;;;;;21.63;9.80;;;;;;;;;;5030683;28;20021;-62
2023/01/13 10:46:11;;;;;;;26.27;10.52;;;;;;;;;;5031746;28;20021;-62
2023/01/13 10:48:37;;;;;;;24.80;10.25;;;;;;;;;;5030879;28;20033;-56
2023/01/13 10:51:18;;;;;;;20.27;10.07;;;;;;;;;;5029393;28;20483;-62
2023/01/13 10:54:17;;;;;;;23.35;10.82;;;;;;;;;;5029655;28;20490;-63
2023/01/13 10:56:44;;;;;;;18.95;9.15;;;;;;;;;;5031049;28;20034;-62
2023/01/13 10:59:25;;;;;;;18.38;9.68;;;;;;;;;;5031350;28;20101;-63
2023/01/13 11:01:54;;;;;;;19.27;9.40;;;;;;;;;;5031027;28;20048;-63
2023/01/13 11:04:28;;;;;;;18.13;9.73;;;;;;;;;;5029792;28;20520;-63
2023/01/13 11:06:55;;;;;;;18.02;8.75;;;;;;;;;;5031844;28;20025;-64
2023/01/13 11:09:21;;;;;;;25.65;9.25;;;;;;;;;;5029281;28;20508;-61
2023/01/13 11:11:54;;;;;;;18.30;8.73;;;;;;;;;;5031261;28;20112;-61
2023/01/13 11:14:32;;;;;;;19.58;10.45;;;;;;;;;;5029664;28;20890;-61
2023/01/13 11:17:01;;;;;;;18.50;8.57;;;;;;;;;;5030235;28;20038;-63
2023/01/13 11:19:28;;;;;;;21.52;9.55;;;;;;;;;;5030863;28;20075;-62
2023/01/13 11:21:54;;;;;;;20.13;9.55;;;;;;;;;;5029739;28;20045;-63
2023/01/13 11:24:30;;;;;;;26.52;9.98;;;;;;;;;;5031000;28;20021;-63
2023/01/13 11:27:02;;;;;;;28.15;9.68;;;;;;;;;;5031431;28;20029;-64
2023/01/13 11:29:28;;;;;;;28.83;9.52;;;;;;;;;;5031231;28;20319;-62
2023/01/13 11:32:00;;;;;;;24.45;9.93;;;;;;;;;;5030888;28;20026;-61
2023/01/13 11:34:36;;;;;;;19.17;9.93;;;;;;;;;;5029806;28;20517;-62
2023/01/13 11:37:06;;;;;;;21.83;11.57;;;;;;;;;;5031543;28;20060;-63
2023/01/13 11:39:52;;;;;;;22.60;12.98;;;;;;;;;;5030152;28;20486;-64
2023/01/13 11:42:28;;;;;;;26.15;13.63;;;;;;;;;;5031080;28;20492;-62
2023/01/13 11:45:03;;;;;;;25.88;17.55;;;;;;;;;;5030827;28;20014;-65
2023/01/13 11:47:31;;;;;;;21.58;13.05;;;;;;;;;;5031078;28;20021;-64
2023/01/13 11:49:57;;;;;;;32.60;15.90;;;;;;;;;;5031074;28;20504;-61
2023/01/13 11:52:27;;;;;;;23.42;12.93;;;;;;;;;;5029729;28;20030;-63
2023/01/13 11:55:12;;;;;;;21.05;14.63;;;;;;;;;;5030234;28;20025;-64
2023/01/13 11:58:05;;;;;;;25.83;15.18;;;;;;;;;;5032987;28;20049;-65
2023/01/13 12:00:43;;;;;;;22.75;13.25;;;;;;;;;;5034329;28;20104;-63
2023/01/13 12:03:09;;;;;;;20.48;14.00;;;;;;;;;;5033083;28;20025;-63
2023/01/13 12:05:58;;;;;;;24.17;16.20;;;;;;;;;;5034249;28;20449;-64
2023/01/13 12:08:36;;;;;;;24.35;17.65;;;;;;;;;;5034693;28;20056;-65
2023/01/13 12:11:16;;;;;;;20.92;16.42;;;;;;;;;;5034317;28;20045;-62
2023/01/13 12:13:45;;;;;;;24.25;17.35;;;;;;;;;;5034187;28;20037;-62
2023/01/13 12:16:22;;;;;;;21.48;16.08;;;;;;;;;;5033717;28;20025;-64
2023/01/13 12:19:06;;;;;;;21.23;15.55;;;;;;;;;;5033607;28;20021;-64
2023/01/13 12:21:45;;;;;;;22.83;16.85;;;;;;;;;;5033715;28;20775;-63
2023/01/13 12:24:19;;;;;;;22.48;15.90;;;;;;;;;;5033446;28;20033;-64
2023/01/13 12:27:11;;;;;;;22.52;15.30;;;;;;;;;;5033798;28;20021;-64
2023/01/13 12:29:38;;;;;;;23.45;14.27;;;;;;;;;;5028560;28;20076;-64
2023/01/13 12:32:19;;;;;;;26.75;14.18;;;;;;;;;;5032693;28;20188;-63
2023/01/13 12:35:04;;;;;;;20.80;13.75;;;;;;;;;;5033715;28;20033;-63
2023/01/13 12:37:49;;;;;;;22.45;13.48;;;;;;;;;;5032326;28;20274;-62
2023/01/13 12:40:22;;;;;;;19.63;13.45;;;;;;;;;;5033449;28;20478;-62
2023/01/13 12:45:52;;;;;;;22.35;14.25;;;;;;;;;;5033825;28;20445;-62
2023/01/13 12:48:37;;;;;;;17.17;12.75;;;;;;;;;;5032530;28;20598;-64
2023/01/13 12:51:04;;;;;;;19.33;12.13;;;;;;;;;;5033857;28;20095;-63
2023/01/13 12:53:32;;;;;;;20.80;12.77;;;;;;;;;;5033310;28;20018;-64
2023/01/13 12:56:17;;;;;;;20.37;12.77;;;;;;;;;;5033213;28;20079;-61
2023/01/13 12:58:43;;;;;;;18.77;11.43;;;;;;;;;;5033126;28;20768;-63
2023/01/13 13:01:13;;;;;;;18.42;11.10;;;;;;;;;;5033101;28;20025;-63
2023/01/13 13:03:39;;;;;;;21.45;11.65;;;;;;;;;;5031658;28;20044;-63
2023/01/13 13:06:08;;;;;;;19.80;10.50;;;;;;;;;;5031281;28;20032;-63
2023/01/13 13:08:53;;;;;;;19.58;10.73;;;;;;;;;;5032657;28;20041;-67
2023/01/13 13:14:38;;;;;;;19.00;10.52;;;;;;;;;;5033316;28;20075;-63
2023/01/13 13:17:24;;;;;;;18.88;10.68;;;;;;;;;;5031797;28;20079;-64
2023/01/13 13:19:51;;;;;;;22.00;10.43;;;;;;;;;;5032841;28;20032;-64
2023/01/13 13:22:21;;;;;;;20.42;17.13;;;;;;;;;;5032842;28;20025;-64
2023/01/13 13:24:53;;;;;;;39.03;35.72;;;;;;;;;;5032469;28;20032;-62
2023/01/13 13:27:19;;;;;;;54.95;50.63;;;;;;;;;;5031191;28;20021;-55
2023/01/13 13:29:52;;;;;;;58.90;54.22;;;;;;;;;;5030941;28;20075;-57
2023/01/13 13:32:21;;;;;;;55.55;51.35;;;;;;;;;;5030871;28;20048;-57
2023/01/13 13:34:59;;;;;;;58.03;53.00;;;;;;;;;;5032316;28;20507;-56
2023/01/13 13:37:25;;;;;;;50.65;46.38;;;;;;;;;;5032931;28;20112;-55
2023/01/13 13:48:10;;;;;;;;;;;;;;;;;;5032846;28;20489;-58
2023/01/13 13:50:36;;;;;;;36.75;33.20;;;;;;;;;;5032270;28;19909;-57
2023/01/13 13:53:05;;;;;;;34.28;31.17;;;;;;;;;;5031913;28;20030;-59
2023/01/13 13:55:31;;;;;;;35.22;31.00;;;;;;;;;;5032049;28;20051;-59
2023/01/13 13:58:00;;;;;;;32.35;29.33;;;;;;;;;;5032326;28;20033;-56
2023/01/13 14:00:30;;;;;;;29.65;26.65;;;;;;;;;;5032084;28;20386;-57
2023/01/13 14:03:07;;;;;;;27.17;24.45;;;;;;;;;;5032138;28;20021;-60
2023/01/13 14:05:35;;;;;;;27.85;25.25;;;;;;;;;;5033373;28;20052;-61
2023/01/13 14:08:16;;;;;;;25.60;22.80;;;;;;;;;;5038893;28;20036;-57
2023/01/13 14:10:43;;;;;;;26.95;23.08;;;;;;;;;;5039641;28;20034;-54
2023/01/13 14:13:29;;;;;;;30.02;23.45;;;;;;;;;;5032683;28;20025;-55
2023/01/13 14:15:59;;;;;;;25.08;22.40;;;;;;;;;;5032175;28;20029;-61
2023/01/13 14:18:27;;;;;;;25.05;21.13;;;;;;;;;;5030067;28;20026;-56
2023/01/13 14:20:53;;;;;;;24.77;22.23;;;;;;;;;;5029677;28;20025;-62
2023/01/13 14:23:22;;;;;;;27.80;25.08;;;;;;;;;;5031695;28;20478;-60
2023/01/13 14:25:49;;;;;;;38.10;34.28;;;;;;;;;;5030627;28;20112;-51
2023/01/13 14:28:19;;;;;;;38.72;35.53;;;;;;;;;;5031826;28;20025;-55
2023/01/13 14:30:45;;;;;;;47.33;43.17;;;;;;;;;;5031778;28;20025;-57
2023/01/13 14:33:16;;;;;;;43.30;39.88;;;;;;;;;;5031427;28;20485;-55
2023/01/13 14:36:01;;;;;;;46.70;42.63;;;;;;;;;;5031561;28;20040;-56
2023/01/13 14:38:27;;;;;;;46.63;42.53;;;;;;;;;;5031366;28;20474;-57
2023/01/13 14:40:53;;;;;;;46.30;42.40;;;;;;;;;;5032016;28;20030;-56
2023/01/13 14:43:22;;;;;;;46.40;42.15;;;;;;;;;;5031194;28;20026;-54
2023/01/13 14:45:56;;;;;;;45.75;41.85;;;;;;;;;;5032823;28;20037;-56
2023/01/13 14:48:25;;;;;;;46.38;42.60;;;;;;;;;;5035086;28;20036;-56
2023/01/13 14:50:51;;;;;;;44.30;40.67;;;;;;;;;;5032074;28;20037;-54
2023/01/13 14:53:33;;;;;;;40.67;36.95;;;;;;;;;;5029867;28;20038;-57
2023/01/13 14:55:59;;;;;;;38.92;35.22;;;;;;;;;;5031874;28;20029;-54
2023/01/13 14:58:27;;;;;;;35.58;32.47;;;;;;;;;;5031317;28;20033;-56
2023/01/13 15:01:13;;;;;;;36.80;33.13;;;;;;;;;;5031501;28;20056;-61
2023/01/13 15:03:42;;;;;;;39.00;34.50;;;;;;;;;;5031199;28;20013;-62
2023/01/13 15:06:22;;;;;;;36.60;33.25;;;;;;;;;;5031680;28;20477;-58
2023/01/13 15:08:49;;;;;;;35.17;31.83;;;;;;;;;;5032106;28;20136;-61
2023/01/13 15:11:22;;;;;;;35.83;32.58;;;;;;;;;;5031920;28;20099;-57
2023/01/13 15:13:54;;;;;;;37.00;33.60;;;;;;;;;;5031922;28;20088;-60
2023/01/13 15:16:22;;;;;;;35.22;31.88;;;;;;;;;;5032001;28;20083;-59
2023/01/13 15:18:48;;;;;;;38.25;34.50;;;;;;;;;;5032238;28;20032;-61
2023/01/13 15:21:15;;;;;;;33.95;30.75;;;;;;;;;;5031520;28;20415;-59
2023/01/13 15:23:41;;;;;;;34.35;31.05;;;;;;;;;;5031345;28;20063;-60
2023/01/13 15:26:13;;;;;;;31.58;28.70;;;;;;;;;;5031747;28;20078;-57
2023/01/13 15:28:39;;;;;;;32.78;29.65;;;;;;;;;;5031981;28;20394;-60
2023/01/13 15:31:05;;;;;;;33.80;30.33;;;;;;;;;;5035472;28;20039;-59
2023/01/13 15:33:31;;;;;;;34.95;29.40;;;;;;;;;;4681179;28;9999649;-57
2023/01/13 15:35:58;;;;;;;32.20;29.08;;;;;;;;;;5031319;28;20029;-58
2023/01/13 15:38:24;;;;;;;31.77;28.80;;;;;;;;;;5031431;28;20030;-56
2023/01/13 15:40:51;;;;;;;29.63;26.65;;;;;;;;;;5029349;28;20034;-57